Time,TemperatureF,DewpointF,PressureIn,WindDirection,WindDirectionDegrees,WindSpeedMPH,WindSpeedGustMPH,Humidity,HourlyPrecipIn,Conditions,Clouds,dailyrainin,SoftwareType,DateUTC
2013-09-16 07:50:00,66.2,64.4,30.10,WNW,297,4.0,7.0,94,0.00,,,0.11,WUHU216DAVISVP2,2013-09-16 12:50:00,
2013-09-16 07:55:00,66.3,64.5,30.11,WNW,295,4.0,9.0,94,0.00,,,0.11,WUHU216DAVISVP2,2013-09-16 12:55:00,
2013-09-16 08:00:00,66.3,64.5,30.11,WNW,293,4.0,9.0,94,0.00,,,0.11,WUHU216DAVISVP2,2013-09-16 13:00:00,
2013-09-16 08:05:00,66.1,64.3,30.11,NW,310,2.0,9.0,94,0.00,,,0.11,WUHU216DAVISVP2,2013-09-16 13:05:00,
2013-09-16 08:10:00,66.0,64.2,30.11,NW,307,2.0,9.0,94,0.00,,,0.11,WUHU216DAVISVP2,2013-09-16 13:10:00,
2013-09-16 08:15:00,65.8,64.0,30.11,WNW,298,6.0,8.0,94,0.00,,,0.11,WUHU216DAVISVP2,2013-09-16 13:15:00,
2013-09-16 08:20:00,65.6,63.8,30.11,WNW,297,2.0,8.0,94,0.00,,,0.11,WUHU216DAVISVP2,2013-09-16 13:20:00,
2013-09-16 08:25:00,65.5,63.7,30.11,WNW,293,1.0,7.0,94,0.00,,,0.11,WUHU216DAVISVP2,2013-09-16 13:25:00,
2013-09-16 08:30:00,65.3,63.5,30.11,WNW,293,1.0,7.0,94,0.00,,,0.11,WUHU216DAVISVP2,2013-09-16 13:30:00,
2013-09-16 08:35:00,65.2,63.4,30.11,WNW,293,2.0,7.0,94,0.00,,,0.11,WUHU216DAVISVP2,2013-09-16 13:35:00,
2013-09-16 08:40:00,65.0,63.2,30.12,WNW,293,0.0,5.0,94,0.00,,,0.11,WUHU216DAVISVP2,2013-09-16 13:40:00,
2013-09-16 08:45:00,65.0,63.2,30.12,WNW,293,0.0,4.0,94,0.00,,,0.11,WUHU216DAVISVP2,2013-09-16 13:45:00,
2013-09-16 08:50:00,64.9,63.1,30.11,WNW,293,3.0,5.0,94,0.00,,,0.11,WUHU216DAVISVP2,2013-09-16 13:50:00,
2013-09-16 08:55:00,64.8,63.0,30.11,WNW,293,2.0,5.0,94,0.00,,,0.11,WUHU216DAVISVP2,2013-09-16 13:55:00,
2013-09-16 09:00:00,64.6,62.8,30.12,WNW,294,2.0,6.0,94,0.00,,,0.11,WUHU216DAVISVP2,2013-09-16 14:00:00,
2013-09-16 09:05:00,64.7,62.9,30.12,WNW,294,2.0,6.0,94,0.00,,,0.11,WUHU216DAVISVP2,2013-09-16 14:05:00,
2013-09-16 09:10:00,64.6,62.8,30.12,WNW,294,0.0,6.0,94,0.00,,,0.11,WUHU216DAVISVP2,2013-09-16 14:10:00,
2013-09-16 09:15:00,64.7,62.9,30.13,NW,306,2.0,6.0,94,0.00,,,0.11,WUHU216DAVISVP2,2013-09-16 14:15:00,
2013-09-16 09:20:00,64.5,62.7,30.13,NW,314,3.0,6.0,94,0.00,,,0.11,WUHU216DAVISVP2,2013-09-16 14:20:00,
2013-09-16 09:25:00,64.4,62.6,30.13,NW,314,1.0,5.0,94,0.00,,,0.11,WUHU216DAVISVP2,2013-09-16 14:25:00,
2013-09-16 09:30:00,64.4,62.6,30.13,NW,314,3.0,5.0,94,0.00,,,0.11,WUHU216DAVISVP2,2013-09-16 14:30:00,
2013-09-16 09:35:00,64.2,62.1,30.13,NW,314,3.0,5.0,93,0.00,,,0.11,WUHU216DAVISVP2,2013-09-16 14:35:00,
2013-09-16 09:40:00,64.2,62.1,30.13,NW,314,3.0,5.0,93,0.00,,,0.11,WUHU216DAVISVP2,2013-09-16 14:40:00,
2013-09-16 09:45:00,64.0,61.9,30.13,NW,314,2.0,6.0,93,0.00,,,0.11,WUHU216DAVISVP2,2013-09-16 14:45:00,
2013-09-16 09:50:00,64.0,61.9,30.14,NW,314,1.0,6.0,93,0.00,,,0.11,WUHU216DAVISVP2,2013-09-16 14:50:00,
2013-09-16 09:55:00,64.0,62.2,30.14,NW,314,0.0,6.0,94,0.00,,,0.11,WUHU216DAVISVP2,2013-09-16 14:55:00,
2013-09-16 10:00:00,64.1,62.3,30.13,NW,314,0.0,6.0,94,0.00,,,0.11,WUHU216DAVISVP2,2013-09-16 15:00:00,
2013-09-16 10:05:00,64.0,61.9,30.14,NW,314,1.0,4.0,93,0.00,,,0.11,WUHU216DAVISVP2,2013-09-16 15:05:00,
2013-09-16 10:10:00,64.0,62.2,30.14,NW,314,0.0,4.0,94,0.00,,,0.11,WUHU216DAVISVP2,2013-09-16 15:10:00,
2013-09-16 10:15:00,64.0,62.2,30.14,NW,314,2.0,4.0,94,0.00,,,0.11,WUHU216DAVISVP2,2013-09-16 15:15:00,
2013-09-16 10:20:00,64.0,62.2,30.14,NW,314,2.0,4.0,94,0.01,,,0.12,WUHU216DAVISVP2,2013-09-16 15:20:00,
2013-09-16 10:25:00,63.9,62.1,30.14,NW,314,1.0,4.0,94,0.01,,,0.12,WUHU216DAVISVP2,2013-09-16 15:25:00,
2013-09-16 10:30:00,63.8,62.0,30.14,NW,314,0.0,4.0,94,0.01,,,0.12,WUHU216DAVISVP2,2013-09-16 15:30:00,
2013-09-16 10:35:00,63.7,61.9,30.14,NW,314,2.0,4.0,94,0.01,,,0.12,WUHU216DAVISVP2,2013-09-16 15:35:00,
2013-09-16 10:40:00,63.6,61.8,30.14,NW,314,3.0,5.0,94,0.01,,,0.12,WUHU216DAVISVP2,2013-09-16 15:40:00,
2013-09-16 10:45:00,63.5,61.7,30.13,NW,314,1.0,5.0,94,0.01,,,0.12,WUHU216DAVISVP2,2013-09-16 15:45:00,
2013-09-16 10:50:00,63.3,61.5,30.13,NW,312,3.0,7.0,94,0.01,,,0.12,WUHU216DAVISVP2,2013-09-16 15:50:00,
2013-09-16 10:55:00,63.4,61.6,30.13,NW,313,5.0,7.0,94,0.01,,,0.12,WUHU216DAVISVP2,2013-09-16 15:55:00,
2013-09-16 11:00:00,63.3,61.2,30.14,NW,314,0.0,7.0,93,0.01,,,0.12,WUHU216DAVISVP2,2013-09-16 16:00:00,
2013-09-16 11:05:00,63.2,61.4,30.14,NW,315,3.0,7.0,94,0.01,,,0.12,WUHU216DAVISVP2,2013-09-16 16:05:00,
2013-09-16 11:10:00,63.1,61.3,30.14,NW,315,2.0,7.0,94,0.01,,,0.12,WUHU216DAVISVP2,2013-09-16 16:10:00,
2013-09-16 11:15:00,63.1,61.3,30.14,NW,315,2.0,7.0,94,0.01,,,0.12,WUHU216DAVISVP2,2013-09-16 16:15:00,
2013-09-16 11:20:00,63.1,61.3,30.14,NW,315,2.0,5.0,94,0.00,,,0.12,WUHU216DAVISVP2,2013-09-16 16:20:00,
2013-09-16 11:25:00,63.2,61.4,30.14,NW,315,4.0,5.0,94,0.00,,,0.12,WUHU216DAVISVP2,2013-09-16 16:25:00,
2013-09-16 11:30:00,63.1,61.4,30.14,NNW,337,3.0,8.0,94,0.00,,,0.12,WUHU216DAVISVP2,2013-09-16 16:30:00,
2013-09-16 11:35:00,63.2,61.4,30.14,NNW,329,3.0,8.0,94,0.00,,,0.12,WUHU216DAVISVP2,2013-09-16 16:35:00,
2013-09-16 11:40:00,63.2,61.4,30.14,NNW,329,3.0,8.0,94,0.00,,,0.12,WUHU216DAVISVP2,2013-09-16 16:40:00,
2013-09-16 11:45:00,63.1,61.1,30.14,NNW,328,2.0,8.0,93,0.00,,,0.12,WUHU216DAVISVP2,2013-09-16 16:45:00,
2013-09-16 11:50:00,63.2,61.1,30.14,NNW,327,3.0,5.0,93,0.00,,,0.12,WUHU216DAVISVP2,2013-09-16 16:50:00,
2013-09-16 11:55:00,63.1,60.7,30.14,NNW,329,2.0,6.0,92,0.00,,,0.12,WUHU216DAVISVP2,2013-09-16 16:55:00,
2013-09-16 12:00:00,63.2,60.8,30.14,NNW,330,2.0,6.0,92,0.00,,,0.12,WUHU216DAVISVP2,2013-09-16 17:00:00,
2013-09-16 12:06:00,63.1,60.7,30.14,NNW,329,2.0,6.0,92,0.00,,,0.12,WUHU216DAVISVP2,2013-09-16 17:06:00,
2013-09-16 12:11:00,63.2,60.8,30.14,NNW,330,2.0,4.0,92,0.00,,,0.12,WUHU216DAVISVP2,2013-09-16 17:11:00,
2013-09-16 12:16:00,63.3,60.6,30.15,NNW,329,0.0,4.0,91,0.00,,,0.12,WUHU216DAVISVP2,2013-09-16 17:16:00,
2013-09-16 12:21:00,63.4,61.0,30.14,NNW,330,1.0,4.0,92,0.00,,,0.12,WUHU216DAVISVP2,2013-09-16 17:21:00,
2013-09-16 12:26:00,63.6,60.9,30.14,NNW,329,0.0,4.0,91,0.00,,,0.12,WUHU216DAVISVP2,2013-09-16 17:26:00,
2013-09-16 12:31:00,63.8,61.1,30.14,NNW,330,2.0,4.0,91,0.00,,,0.12,WUHU216DAVISVP2,2013-09-16 17:31:00,
2013-09-16 12:36:00,63.8,61.1,30.14,NNW,330,3.0,4.0,91,0.00,,,0.12,WUHU216DAVISVP2,2013-09-16 17:36:00,
2013-09-16 12:41:00,63.9,60.9,30.14,NNW,330,0.0,4.0,90,0.00,,,0.12,WUHU216DAVISVP2,2013-09-16 17:41:00,
2013-09-16 12:46:00,63.9,60.9,30.13,NNW,330,0.0,4.0,90,0.00,,,0.12,WUHU216DAVISVP2,2013-09-16 17:46:00,
2013-09-16 12:51:00,64.1,61.1,30.13,NNW,330,3.0,4.0,90,0.00,,,0.12,WUHU216DAVISVP2,2013-09-16 17:51:00,
2013-09-16 12:56:00,64.1,61.1,30.14,NNW,329,2.0,4.0,90,0.00,,,0.12,WUHU216DAVISVP2,2013-09-16 17:56:00,
2013-09-16 13:01:00,64.2,60.9,30.14,NNW,329,1.0,4.0,89,0.00,,,0.12,WUHU216DAVISVP2,2013-09-16 18:01:00,
2013-09-16 13:06:00,64.3,61.0,30.14,NNW,329,0.0,4.0,89,0.00,,,0.12,WUHU216DAVISVP2,2013-09-16 18:06:00,
2013-09-16 13:11:00,64.4,61.1,30.14,NNW,330,3.0,5.0,89,0.00,,,0.12,WUHU216DAVISVP2,2013-09-16 18:11:00,
2013-09-16 13:16:00,64.7,61.4,30.14,NNW,330,0.0,5.0,89,0.00,,,0.12,WUHU216DAVISVP2,2013-09-16 18:16:00,
2013-09-16 13:21:00,64.7,61.1,30.14,NNW,335,2.0,5.0,88,0.00,,,0.12,WUHU216DAVISVP2,2013-09-16 18:21:00,
2013-09-16 13:26:00,64.7,61.0,30.14,NNW,345,0.0,5.0,88,0.00,,,0.12,WUHU216DAVISVP2,2013-09-16 18:26:00,
2013-09-16 13:31:00,64.7,61.0,30.14,NNW,345,0.0,5.0,88,0.00,,,0.12,WUHU216DAVISVP2,2013-09-16 18:31:00,
2013-09-16 13:36:00,64.8,61.2,30.14,NNW,345,0.0,5.0,88,0.00,,,0.12,WUHU216DAVISVP2,2013-09-16 18:36:00,
2013-09-16 13:41:00,64.8,61.2,30.14,NNW,345,0.0,3.0,88,0.00,,,0.12,WUHU216DAVISVP2,2013-09-16 18:41:00,
2013-09-16 13:46:00,64.9,61.2,30.14,NNW,345,0.0,2.0,88,0.00,,,0.12,WUHU216DAVISVP2,2013-09-16 18:46:00,
2013-09-16 13:51:00,65.0,61.4,30.13,NNW,345,0.0,2.0,88,0.00,,,0.12,WUHU216DAVISVP2,2013-09-16 18:51:00,
2013-09-16 13:56:00,65.3,61.0,30.13,NNW,345,0.0,1.0,86,0.00,,,0.12,WUHU216DAVISVP2,2013-09-16 18:56:00,
2013-09-16 14:01:00,65.4,61.4,30.13,NNW,348,0.0,2.0,87,0.00,,,0.12,WUHU216DAVISVP2,2013-09-16 19:01:00,
2013-09-16 14:06:00,65.7,62.0,30.13,NNW,348,0.0,2.0,88,0.00,,,0.12,WUHU216DAVISVP2,2013-09-16 19:06:00,
2013-09-16 14:11:00,65.9,61.9,30.13,NNW,348,0.0,2.0,87,0.00,,,0.12,WUHU216DAVISVP2,2013-09-16 19:11:00,
2013-09-16 14:16:00,66.1,61.8,30.12,NNW,348,0.0,2.0,86,0.00,,,0.12,WUHU216DAVISVP2,2013-09-16 19:16:00,
2013-09-16 14:21:00,66.1,62.1,30.12,NNW,348,0.0,2.0,87,0.00,,,0.12,WUHU216DAVISVP2,2013-09-16 19:21:00,
2013-09-16 14:26:00,66.1,62.1,30.12,NNW,348,0.0,2.0,87,0.00,,,0.12,WUHU216DAVISVP2,2013-09-16 19:26:00,
2013-09-16 14:31:00,66.1,61.8,30.12,NNW,348,0.0,2.0,86,0.00,,,0.12,WUHU216DAVISVP2,2013-09-16 19:31:00,
2013-09-16 14:36:00,66.3,62.0,30.11,NNW,348,0.0,3.0,86,0.00,,,0.12,WUHU216DAVISVP2,2013-09-16 19:36:00,
2013-09-16 14:41:00,66.5,61.9,30.12,NNW,348,0.0,3.0,85,0.00,,,0.12,WUHU216DAVISVP2,2013-09-16 19:41:00,
2013-09-16 14:46:00,66.8,62.2,30.11,NNW,348,0.0,3.0,85,0.00,,,0.12,WUHU216DAVISVP2,2013-09-16 19:46:00,
2013-09-16 14:51:00,67.1,62.8,30.11,NNW,348,0.0,3.0,86,0.00,,,0.12,WUHU216DAVISVP2,2013-09-16 19:51:00,
2013-09-16 14:56:00,67.4,62.7,30.11,NNW,348,1.0,2.0,85,0.00,,,0.12,WUHU216DAVISVP2,2013-09-16 19:56:00,
2013-09-16 15:01:00,67.6,62.6,30.11,NNW,348,0.0,3.0,84,0.00,,,0.12,WUHU216DAVISVP2,2013-09-16 20:01:00,
2013-09-16 15:06:00,67.8,63.4,30.10,NNW,348,1.0,4.0,86,0.00,,,0.12,WUHU216DAVISVP2,2013-09-16 20:06:00,
2013-09-16 15:11:00,68.2,63.2,30.10,NNW,347,2.0,4.0,84,0.00,,,0.12,WUHU216DAVISVP2,2013-09-16 20:11:00,
2013-09-16 15:16:00,68.5,63.8,30.10,NNW,347,1.0,4.0,85,0.00,,,0.12,WUHU216DAVISVP2,2013-09-16 20:16:00,
2013-09-16 15:21:00,68.7,64.0,30.10,NNW,347,0.0,4.0,85,0.00,,,0.12,WUHU216DAVISVP2,2013-09-16 20:21:00,
2013-09-16 15:26:00,68.9,63.9,30.10,NNW,347,1.0,4.0,84,0.00,,,0.12,WUHU216DAVISVP2,2013-09-16 20:26:00,
2013-09-16 15:31:00,69.1,63.7,30.09,NNW,347,2.0,4.0,83,0.00,,,0.12,WUHU216DAVISVP2,2013-09-16 20:31:00,
2013-09-16 15:36:00,69.2,64.2,30.09,NNW,343,3.0,6.0,84,0.00,,,0.12,WUHU216DAVISVP2,2013-09-16 20:36:00,
2013-09-16 15:41:00,69.3,64.3,30.09,NNW,343,4.0,6.0,84,0.00,,,0.12,WUHU216DAVISVP2,2013-09-16 20:41:00,
2013-09-16 15:46:00,69.4,64.4,30.08,NNW,347,2.0,6.0,84,0.00,,,0.12,WUHU216DAVISVP2,2013-09-16 20:46:00,
2013-09-16 15:51:00,69.6,64.6,30.08,NNW,347,0.0,6.0,84,0.00,,,0.12,WUHU216DAVISVP2,2013-09-16 20:51:00,
2013-09-16 15:56:00,69.9,64.5,30.08,North,349,1.0,7.0,83,0.00,,,0.12,WUHU216DAVISVP2,2013-09-16 20:56:00,
2013-09-16 16:01:00,70.0,64.6,30.08,NW,312,3.0,7.0,83,0.00,,,0.12,WUHU216DAVISVP2,2013-09-16 21:01:00,
2013-09-16 16:06:00,70.1,64.8,30.08,NW,311,2.0,7.0,83,0.00,,,0.12,WUHU216DAVISVP2,2013-09-16 21:06:00,
2013-09-16 16:11:00,70.3,64.6,30.08,NW,316,1.0,7.0,82,0.00,,,0.12,WUHU216DAVISVP2,2013-09-16 21:11:00,
2013-09-16 16:16:00,70.4,65.0,30.08,NW,308,6.0,7.0,83,0.00,,,0.12,WUHU216DAVISVP2,2013-09-16 21:16:00,
2013-09-16 16:21:00,70.5,65.2,30.08,NW,308,1.0,7.0,83,0.00,,,0.12,WUHU216DAVISVP2,2013-09-16 21:21:00,
2013-09-16 16:26:00,70.8,65.4,30.08,NW,319,3.0,7.0,83,0.00,,,0.12,WUHU216DAVISVP2,2013-09-16 21:26:00,
2013-09-16 16:31:00,70.8,65.1,30.08,NW,312,1.0,7.0,82,0.00,,,0.12,WUHU216DAVISVP2,2013-09-16 21:31:00,
2013-09-16 16:36:00,70.9,65.2,30.08,NW,312,0.0,7.0,82,0.00,,,0.12,WUHU216DAVISVP2,2013-09-16 21:36:00,
2013-09-16 16:41:00,71.3,65.9,30.08,NW,312,0.0,7.0,83,0.00,,,0.12,WUHU216DAVISVP2,2013-09-16 21:41:00,
2013-09-16 16:46:00,71.4,65.7,30.08,NW,313,1.0,7.0,82,0.00,,,0.12,WUHU216DAVISVP2,2013-09-16 21:46:00,
2013-09-16 16:51:00,71.6,65.9,30.08,NW,313,0.0,6.0,82,0.00,,,0.12,WUHU216DAVISVP2,2013-09-16 21:51:00,
2013-09-16 16:56:00,71.7,66.0,30.08,NW,318,2.0,5.0,82,0.00,,,0.12,WUHU216DAVISVP2,2013-09-16 21:56:00,
2013-09-16 17:01:00,71.7,66.0,30.08,NW,318,0.0,5.0,82,0.00,,,0.12,WUHU216DAVISVP2,2013-09-16 22:01:00,
2013-09-16 17:06:00,71.9,66.2,30.08,NW,318,2.0,5.0,82,0.00,,,0.12,WUHU216DAVISVP2,2013-09-16 22:06:00,
2013-09-16 17:11:00,72.1,66.3,30.08,NW,318,0.0,5.0,82,0.00,,,0.12,WUHU216DAVISVP2,2013-09-16 22:11:00,
2013-09-16 17:16:00,72.2,66.5,30.08,NW,318,0.0,4.0,82,0.00,,,0.12,WUHU216DAVISVP2,2013-09-16 22:16:00,
2013-09-16 17:21:00,72.4,66.6,30.08,NW,318,0.0,4.0,82,0.00,,,0.12,WUHU216DAVISVP2,2013-09-16 22:21:00,
2013-09-16 17:26:00,72.4,66.7,30.08,NW,318,0.0,4.0,82,0.00,,,0.12,WUHU216DAVISVP2,2013-09-16 22:26:00,
2013-09-16 17:31:00,72.6,67.2,30.08,NW,318,0.0,4.0,83,0.00,,,0.12,WUHU216DAVISVP2,2013-09-16 22:31:00,
2013-09-16 17:36:00,72.7,67.2,30.08,NW,318,0.0,4.0,83,0.00,,,0.12,WUHU216DAVISVP2,2013-09-16 22:36:00,
2013-09-16 17:41:00,72.8,67.4,30.08,NW,318,0.0,2.0,83,0.00,,,0.12,WUHU216DAVISVP2,2013-09-16 22:41:00,
2013-09-16 17:46:00,72.9,67.5,30.08,NW,318,0.0,2.0,83,0.00,,,0.12,WUHU216DAVISVP2,2013-09-16 22:46:00,
2013-09-16 17:51:00,73.0,67.9,30.07,NW,318,0.0,0.0,84,0.00,,,0.12,WUHU216DAVISVP2,2013-09-16 22:51:00,
2013-09-16 17:56:00,73.2,68.1,30.08,NW,318,0.0,0.0,84,0.00,,,0.12,WUHU216DAVISVP2,2013-09-16 22:56:00,
2013-09-16 18:01:00,73.3,68.2,30.08,NW,318,0.0,0.0,84,0.00,,,0.12,WUHU216DAVISVP2,2013-09-16 23:01:00,
2013-09-16 18:06:00,73.2,68.1,30.08,NW,318,0.0,0.0,84,0.00,,,0.12,WUHU216DAVISVP2,2013-09-16 23:06:00,
2013-09-16 18:11:00,73.2,68.5,30.08,NW,318,0.0,0.0,85,0.00,,,0.12,WUHU216DAVISVP2,2013-09-16 23:11:00,
2013-09-16 18:16:00,73.1,68.3,30.08,West,260,5.0,7.0,85,0.00,,,0.12,WUHU216DAVISVP2,2013-09-16 23:16:00,
2013-09-16 18:21:00,72.7,68.0,30.08,West,277,8.0,8.0,85,0.00,,,0.12,WUHU216DAVISVP2,2013-09-16 23:21:00,
2013-09-16 18:26:00,72.4,67.7,30.08,West,262,5.0,8.0,85,0.00,,,0.12,WUHU216DAVISVP2,2013-09-16 23:26:00,
2013-09-16 18:31:00,72.1,67.7,30.08,West,268,4.0,8.0,86,0.00,,,0.12,WUHU216DAVISVP2,2013-09-16 23:31:00,
2013-09-16 18:36:00,71.8,67.4,30.08,West,273,1.0,8.0,86,0.00,,,0.12,WUHU216DAVISVP2,2013-09-16 23:36:00,
2013-09-16 18:41:00,71.5,67.1,30.08,West,268,1.0,8.0,86,0.00,,,0.12,WUHU216DAVISVP2,2013-09-16 23:41:00,
2013-09-16 18:46:00,71.1,66.7,30.08,West,264,1.0,9.0,86,0.00,,,0.12,WUHU216DAVISVP2,2013-09-16 23:46:00,
2013-09-16 18:51:00,70.6,66.6,30.08,West,270,6.0,11.0,87,0.00,,,0.12,WUHU216DAVISVP2,2013-09-16 23:51:00,
2013-09-16 18:56:00,70.1,66.0,30.08,West,273,6.0,11.0,87,0.00,,,0.12,WUHU216DAVISVP2,2013-09-16 23:56:00,
2013-09-16 19:01:00,69.7,66.0,30.08,West,271,7.0,11.0,88,0.00,,,0.12,WUHU216DAVISVP2,2013-09-17 00:01:00,
2013-09-16 19:06:00,69.4,65.7,30.08,West,279,7.0,11.0,88,0.00,,,0.12,WUHU216DAVISVP2,2013-09-17 00:06:00,
2013-09-16 19:11:00,69.1,65.7,30.08,West,278,4.0,8.0,89,0.00,,,0.12,WUHU216DAVISVP2,2013-09-17 00:11:00,
2013-09-16 19:16:00,68.8,65.5,30.08,West,273,7.0,9.0,89,0.00,,,0.12,WUHU216DAVISVP2,2013-09-17 00:16:00,
2013-09-16 19:21:00,68.5,65.1,30.08,West,277,5.0,10.0,89,0.00,,,0.12,WUHU216DAVISVP2,2013-09-17 00:21:00,
2013-09-16 19:26:00,68.1,64.7,30.08,West,273,7.0,11.0,89,0.00,,,0.12,WUHU216DAVISVP2,2013-09-17 00:26:00,
2013-09-16 19:31:00,67.7,64.7,30.08,West,267,5.0,11.0,90,0.00,,,0.12,WUHU216DAVISVP2,2013-09-17 00:31:00,
2013-09-16 19:36:00,67.5,64.4,30.08,West,274,6.0,12.0,90,0.00,,,0.12,WUHU216DAVISVP2,2013-09-17 00:36:00,
2013-09-16 19:41:00,67.3,64.5,30.08,WNW,290,6.0,12.0,91,0.00,,,0.12,WUHU216DAVISVP2,2013-09-17 00:41:00,
2013-09-16 19:46:00,67.0,64.3,30.08,West,275,7.0,12.0,91,0.00,,,0.12,WUHU216DAVISVP2,2013-09-17 00:46:00,
2013-09-16 19:51:00,66.9,64.2,30.09,West,279,5.0,12.0,91,0.00,,,0.12,WUHU216DAVISVP2,2013-09-17 00:51:00,
2013-09-16 19:56:00,66.8,64.0,30.09,West,278,0.0,12.0,91,0.00,,,0.12,WUHU216DAVISVP2,2013-09-17 00:56:00,
2013-09-16 20:01:00,66.7,64.0,30.09,WNW,284,5.0,12.0,91,0.00,,,0.12,WUHU216DAVISVP2,2013-09-17 01:01:00,
2013-09-16 20:06:00,66.7,64.0,30.09,West,272,2.0,8.0,91,0.00,,,0.12,WUHU216DAVISVP2,2013-09-17 01:06:00,
2013-09-16 20:11:00,66.6,63.8,30.09,West,272,1.0,8.0,91,0.00,,,0.12,WUHU216DAVISVP2,2013-09-17 01:11:00,
2013-09-16 20:16:00,66.5,63.8,30.09,West,278,2.0,9.0,91,0.00,,,0.12,WUHU216DAVISVP2,2013-09-17 01:16:00,
2013-09-16 20:21:00,66.5,63.8,30.10,West,274,3.0,9.0,91,0.00,,,0.12,WUHU216DAVISVP2,2013-09-17 01:21:00,
2013-09-16 20:26:00,66.4,63.6,30.10,WNW,290,5.0,9.0,91,0.00,,,0.12,WUHU216DAVISVP2,2013-09-17 01:26:00,
2013-09-16 20:31:00,66.3,63.6,30.10,West,281,3.0,9.0,91,0.00,,,0.12,WUHU216DAVISVP2,2013-09-17 01:31:00,
2013-09-16 20:36:00,66.2,63.5,30.10,West,281,2.0,8.0,91,0.00,,,0.12,WUHU216DAVISVP2,2013-09-17 01:36:00,
2013-09-16 20:40:00,66.2,63.7,30.10,West,281,5.0,8.0,92,0.00,,,0.12,WUHU216DAVISVP2,2013-09-17 01:40:00,
2013-09-16 20:45:00,66.0,63.3,30.10,West,281,3.0,8.0,91,0.00,,,0.12,WUHU216DAVISVP2,2013-09-17 01:45:00,
2013-09-16 20:50:00,66.0,63.6,30.10,WNW,287,2.0,8.0,92,0.00,,,0.12,WUHU216DAVISVP2,2013-09-17 01:50:00,
2013-09-16 20:55:00,66.0,63.2,30.10,WNW,283,1.0,8.0,91,0.00,,,0.12,WUHU216DAVISVP2,2013-09-17 01:55:00,
2013-09-16 21:00:00,65.9,63.5,30.11,WNW,283,1.0,8.0,92,0.00,,,0.12,WUHU216DAVISVP2,2013-09-17 02:00:00,
2013-09-16 21:05:00,65.9,63.2,30.11,WNW,287,3.0,8.0,91,0.00,,,0.12,WUHU216DAVISVP2,2013-09-17 02:05:00,
2013-09-16 21:10:00,65.9,63.2,30.11,WNW,287,0.0,7.0,91,0.00,,,0.12,WUHU216DAVISVP2,2013-09-17 02:10:00,
2013-09-16 21:15:00,65.9,63.1,30.11,WNW,287,3.0,6.0,91,0.00,,,0.12,WUHU216DAVISVP2,2013-09-17 02:15:00,
2013-09-16 21:20:00,65.7,63.0,30.11,WNW,287,3.0,6.0,91,0.00,,,0.12,WUHU216DAVISVP2,2013-09-17 02:20:00,
2013-09-16 21:25:00,65.7,63.0,30.11,West,281,0.0,6.0,91,0.00,,,0.12,WUHU216DAVISVP2,2013-09-17 02:25:00,
2013-09-16 21:30:00,65.7,63.0,30.11,West,281,0.0,6.0,91,0.00,,,0.12,WUHU216DAVISVP2,2013-09-17 02:30:00,
2013-09-16 21:35:00,65.7,62.9,30.11,West,278,5.0,6.0,91,0.00,,,0.12,WUHU216DAVISVP2,2013-09-17 02:35:00,
2013-09-16 21:40:00,65.5,62.8,30.11,West,275,6.0,7.0,91,0.00,,,0.12,WUHU216DAVISVP2,2013-09-17 02:40:00,
2013-09-16 21:45:00,65.5,62.8,30.11,West,274,0.0,8.0,91,0.00,,,0.12,WUHU216DAVISVP2,2013-09-17 02:45:00,
2013-09-16 21:50:00,65.4,62.7,30.11,West,275,1.0,9.0,91,0.00,,,0.12,WUHU216DAVISVP2,2013-09-17 02:50:00,
2013-09-16 21:55:00,65.3,62.5,30.11,West,277,5.0,9.0,91,0.00,,,0.12,WUHU216DAVISVP2,2013-09-17 02:55:00,
2013-09-16 22:00:00,65.1,62.4,30.11,West,268,4.0,9.0,91,0.00,,,0.12,WUHU216DAVISVP2,2013-09-17 03:00:00,
2013-09-16 22:05:00,65.1,62.4,30.11,West,270,3.0,9.0,91,0.00,,,0.12,WUHU216DAVISVP2,2013-09-17 03:05:00,
2013-09-16 22:10:00,65.1,62.4,30.11,West,277,1.0,8.0,91,0.00,,,0.12,WUHU216DAVISVP2,2013-09-17 03:10:00,
2013-09-16 22:15:00,65.0,62.2,30.11,West,280,5.0,10.0,91,0.00,,,0.12,WUHU216DAVISVP2,2013-09-17 03:15:00,
2013-09-16 22:20:00,64.8,62.1,30.11,West,279,2.0,10.0,91,0.00,,,0.12,WUHU216DAVISVP2,2013-09-17 03:20:00,
2013-09-16 22:25:00,64.8,62.1,30.11,West,280,6.0,10.0,91,0.00,,,0.12,WUHU216DAVISVP2,2013-09-17 03:25:00,
2013-09-16 22:30:00,64.7,62.3,30.11,WNW,288,4.0,10.0,92,0.00,,,0.12,WUHU216DAVISVP2,2013-09-17 03:30:00,
2013-09-16 22:35:00,64.7,62.3,30.11,WNW,291,3.0,9.0,92,0.00,,,0.12,WUHU216DAVISVP2,2013-09-17 03:35:00,
2013-09-16 22:40:00,64.6,62.2,30.11,West,275,6.0,9.0,92,0.00,,,0.12,WUHU216DAVISVP2,2013-09-17 03:40:00,
2013-09-16 22:45:00,64.5,62.1,30.11,NW,309,5.0,9.0,92,0.00,,,0.12,WUHU216DAVISVP2,2013-09-17 03:45:00,
2013-09-16 22:50:00,64.5,62.1,30.11,WNW,302,4.0,9.0,92,0.00,,,0.12,WUHU216DAVISVP2,2013-09-17 03:50:00,
2013-09-16 22:55:00,64.4,62.0,30.12,West,272,0.0,9.0,92,0.00,,,0.12,WUHU216DAVISVP2,2013-09-17 03:55:00,
2013-09-16 23:00:00,64.4,62.0,30.12,WNW,289,4.0,12.0,92,0.00,,,0.12,WUHU216DAVISVP2,2013-09-17 04:00:00,
2013-09-16 23:01:00,64.4,62.0,30.12,WNW,289,4.0,12.0,92,0.00,,,0.12,WUHU216DAVISVP2,2013-09-17 04:01:00,
2013-09-16 23:06:00,64.4,62.0,30.12,WNW,302,3.0,12.0,92,0.00,,,0.12,WUHU216DAVISVP2,2013-09-17 04:06:00,
2013-09-16 23:11:00,64.4,62.0,30.12,WNW,294,1.0,12.0,92,0.00,,,0.12,WUHU216DAVISVP2,2013-09-17 04:11:00,
2013-09-16 23:16:00,64.2,61.8,30.12,WNW,300,6.0,12.0,92,0.00,,,0.12,WUHU216DAVISVP2,2013-09-17 04:16:00,
2013-09-16 23:21:00,64.2,61.8,30.12,NW,309,5.0,9.0,92,0.00,,,0.12,WUHU216DAVISVP2,2013-09-17 04:21:00,
2013-09-16 23:26:00,64.2,61.8,30.12,WNW,299,4.0,10.0,92,0.00,,,0.12,WUHU216DAVISVP2,2013-09-17 04:26:00,
2013-09-16 23:31:00,64.2,61.8,30.12,WNW,298,1.0,10.0,92,0.00,,,0.12,WUHU216DAVISVP2,2013-09-17 04:31:00,
2013-09-16 23:36:00,64.1,62.0,30.12,WNW,296,4.0,10.0,93,0.00,,,0.12,WUHU216DAVISVP2,2013-09-17 04:36:00,
2013-09-16 23:41:00,64.1,62.0,30.12,WNW,300,3.0,9.0,93,0.00,,,0.12,WUHU216DAVISVP2,2013-09-17 04:41:00,
2013-09-16 23:46:00,64.1,62.0,30.12,WNW,301,3.0,9.0,93,0.00,,,0.12,WUHU216DAVISVP2,2013-09-17 04:46:00,
2013-09-16 23:51:00,64.1,62.0,30.13,WNW,303,5.0,9.0,93,0.00,,,0.12,WUHU216DAVISVP2,2013-09-17 04:51:00,
2013-09-16 23:56:00,64.1,62.0,30.13,NW,320,4.0,10.0,93,0.00,,,0.12,WUHU216DAVISVP2,2013-09-17 04:56:00,